KILM/ILM METAR and TAF weather

Enter ICAO airport designator
Station Type Date Time Source
KILM METAR 2022/09/26 08:53 UTC NOAA

KILM 260853Z AUTO 26005KT 10SM CLR 23/19 A2984 RMK AO2 SLP104 T02280194 57006 $


Station Type Date Time Source
KILM Decoded METAR 2022/09/26 08:53 UTC NOAA

WILMINGTON INT'L AIRPORT, NC, United States (KILM) 34-16N 077-54W 9M
Sep 26, 2022 - 04:53 AM EDT / 2022.09.26 0853 UTC
Wind: from the W (260 degrees) at 6 MPH (5 KT):0
Visibility: 10 mile(s):0
Sky conditions: clear
Temperature: 73.0 F (22.8 C)
Dew Point: 66.9 F (19.4 C)
Relative Humidity: 81%
Pressure (altimeter): 29.84 in. Hg (1010 hPa)
Pressure tendency: 0.02 inches (0.6 hPa) lower than three hours ago
ob: KILM 260853Z AUTO 26005KT 10SM CLR 23/19 A2984 RMK AO2 SLP104 T02280194 57006
cycle: 9

Station Type Date Time Source
KILM TAF 2022/09/26 06:48 UTC NOAA

TAF KILM 260547Z 2606/2706 22007KT P6SM BKN080
FM261500 23009KT P6SM SCT035 SCT250
FM270000 21005KT P6SM BKN050
FM270300 24007KT P6SM VCSH SCT016 BKN050

Example: see airport list